createdAt,value
2023-05-09T00:02:09.794Z,101034.03
2023-05-09T00:05:13.043Z,101032.63
2023-05-09T00:08:15.474Z,101035.41
2023-05-09T00:11:18.120Z,101033.19
2023-05-09T00:14:19.884Z,101026.47
2023-05-09T00:17:22.765Z,101033.59
2023-05-09T00:20:24.575Z,101020.16
2023-05-09T00:23:26.314Z,101020.25
2023-05-09T00:26:28.313Z,101018.03
2023-05-09T00:29:31.248Z,101009.53
2023-05-09T00:32:34.284Z,101017.16
2023-05-09T00:35:36.099Z,101008.81
2023-05-09T00:38:38.058Z,101008.72
2023-05-09T00:41:39.862Z,101009.94
2023-05-09T00:44:41.539Z,101007.00
2023-05-09T00:47:43.612Z,101006.50
2023-05-09T00:50:46.293Z,101002.44
2023-05-09T00:53:48.542Z,100996.66
2023-05-09T00:56:51.222Z,100989.22
2023-05-09T00:59:52.934Z,100990.84
2023-05-09T01:02:59.038Z,100980.00
2023-05-09T01:06:33.976Z,100972.22
2023-05-09T01:10:00.988Z,100965.50
2023-05-09T01:13:26.227Z,100964.06
2023-05-09T01:17:01.074Z,100950.53
2023-05-09T01:20:18.792Z,100948.88
2023-05-09T01:24:00.689Z,100937.47
2023-05-09T01:27:22.209Z,100943.69
2023-05-09T01:30:26.010Z,100944.97
2023-05-09T01:33:30.428Z,100945.28
2023-05-09T01:36:33.564Z,100945.50
2023-05-09T01:39:39.920Z,100930.91
2023-05-09T01:42:45.444Z,100928.22
2023-05-09T01:45:48.938Z,100930.69
2023-05-09T01:48:52.456Z,100922.22
2023-05-09T01:51:56.099Z,100928.22
2023-05-09T01:55:01.504Z,100927.38
2023-05-09T01:58:05.886Z,100918.31
2023-05-09T02:01:08.758Z,100917.38
2023-05-09T02:04:11.633Z,100925.44
2023-05-09T02:07:13.677Z,100913.56
2023-05-09T02:10:16.201Z,100922.75
2023-05-09T02:13:18.113Z,100919.66
2023-05-09T02:16:20.992Z,100910.59
2023-05-09T02:19:22.837Z,100906.53
2023-05-09T02:22:24.760Z,100916.28
2023-05-09T02:25:26.956Z,100916.59
2023-05-09T02:28:29.860Z,100919.78
2023-05-09T02:31:33.866Z,100914.19
2023-05-09T02:34:37.410Z,100917.94
2023-05-09T02:37:39.527Z,100919.50
2023-05-09T02:40:44.463Z,100902.22
2023-05-09T02:43:47.339Z,100909.88
2023-05-09T02:46:50.905Z,100903.78
2023-05-09T02:49:52.550Z,100908.34
2023-05-09T02:52:54.400Z,100905.63
2023-05-09T02:55:56.038Z,100911.09
2023-05-09T02:58:57.570Z,100908.22
2023-05-09T03:01:59.343Z,100900.78
2023-05-09T03:05:01.630Z,100901.16
2023-05-09T03:08:03.367Z,100893.72
2023-05-09T03:11:05.842Z,100892.78
2023-05-09T03:14:08.748Z,100896.06
2023-05-09T03:17:10.647Z,100889.03
2023-05-09T03:20:13.416Z,100880.56
2023-05-09T03:23:15.088Z,100883.97
2023-05-09T03:26:16.824Z,100879.44
2023-05-09T03:29:18.751Z,100885.44
2023-05-09T03:32:20.403Z,100879.56
2023-05-09T03:35:22.745Z,100875.53
2023-05-09T03:38:24.457Z,100873.66
2023-05-09T03:41:26.990Z,100870.03
2023-05-09T03:44:29.398Z,100874.91
2023-05-09T03:47:31.144Z,100866.81
2023-05-09T03:50:33.053Z,100864.94
2023-05-09T03:53:34.691Z,100865.16
2023-05-09T03:56:36.689Z,100860.09
2023-05-09T03:59:38.919Z,100857.00
2023-05-09T04:02:42.421Z,100861.88
2023-05-09T04:05:51.792Z,100864.28
2023-05-09T04:09:10.119Z,100855.16
2023-05-09T04:12:12.072Z,100864.25
2023-05-09T04:15:14.053Z,100856.78
2023-05-09T04:18:15.933Z,100846.94
2023-05-09T04:21:17.734Z,100847.44
2023-05-09T04:24:22.984Z,100851.91
2023-05-09T04:27:25.834Z,100851.91
2023-05-09T04:30:27.888Z,100848.59
2023-05-09T04:33:30.276Z,100843.41
2023-05-09T04:36:36.317Z,100848.00
2023-05-09T04:39:39.623Z,100841.28
2023-05-09T04:42:49.965Z,100841.16
2023-05-09T04:45:52.497Z,100842.91
2023-05-09T04:48:54.439Z,100845.28
2023-05-09T04:51:56.169Z,100838.16
2023-05-09T04:54:58.044Z,100841.66
2023-05-09T04:58:03.592Z,100840.50
2023-05-09T05:01:06.142Z,100843.69
2023-05-09T05:04:08.115Z,100837.16
2023-05-09T05:07:10.633Z,100826.38
2023-05-09T05:10:13.706Z,100828.31
2023-05-09T05:13:18.983Z,100821.03
2023-05-09T05:16:24.906Z,100824.84
2023-05-09T05:19:26.948Z,100826.03
2023-05-09T05:22:32.613Z,100829.84
2023-05-09T05:25:35.053Z,100830.31
2023-05-09T05:28:37.167Z,100827.16
2023-05-09T05:31:40.186Z,100825.44
2023-05-09T05:34:42.655Z,100826.63
2023-05-09T05:37:45.794Z,100818.16
2023-05-09T05:40:49.381Z,100805.34
2023-05-09T05:43:53.534Z,100809.00
2023-05-09T05:46:56.498Z,100810.63
2023-05-09T05:49:58.505Z,100808.41
2023-05-09T05:53:00.492Z,100803.56
2023-05-09T05:56:02.490Z,100795.78
2023-05-09T05:59:06.992Z,100794.31
2023-05-09T06:02:09.034Z,100791.97
2023-05-09T06:05:11.708Z,100785.66
2023-05-09T06:08:14.648Z,100787.91
2023-05-09T06:11:16.929Z,100781.94
2023-05-09T06:14:18.906Z,100786.16
2023-05-09T06:17:21.156Z,100789.41
2023-05-09T06:20:24.004Z,100792.88
2023-05-09T06:23:26.442Z,100792.13
2023-05-09T06:26:28.233Z,100784.25
2023-05-09T06:29:30.108Z,100783.50
2023-05-09T06:32:32.034Z,100787.91
2023-05-09T06:35:34.157Z,100777.81
2023-05-09T06:38:36.557Z,100776.63
2023-05-09T06:41:38.340Z,100770.59
2023-05-09T06:44:40.058Z,100765.09
2023-05-09T06:47:41.873Z,100761.41
2023-05-09T06:50:43.715Z,100754.31
2023-05-09T06:53:45.777Z,100754.44
2023-05-09T06:56:47.716Z,100746.63
2023-05-09T06:59:49.971Z,100737.91
2023-05-09T07:02:51.713Z,100733.72
2023-05-09T07:05:53.502Z,100723.22
2023-05-09T07:08:55.098Z,100721.44
2023-05-09T07:11:56.753Z,100721.72
2023-05-09T07:14:58.839Z,100718.78
2023-05-09T07:18:00.822Z,100718.91
2023-05-09T07:21:02.848Z,100724.41
2023-05-09T07:24:04.943Z,100723.31
2023-05-09T07:27:06.879Z,100723.59
2023-05-09T07:30:09.360Z,100721.50
2023-05-09T07:33:11.512Z,100712.69
2023-05-09T07:36:14.933Z,100711.84
2023-05-09T07:39:16.995Z,100694.81
2023-05-09T07:42:18.972Z,100697.44
2023-05-09T07:45:22.962Z,100695.47
2023-05-09T07:48:26.557Z,100687.59
2023-05-09T07:51:28.913Z,100685.59
2023-05-09T07:54:31.028Z,100674.69
2023-05-09T07:57:33.089Z,100677.47
2023-05-09T08:00:35.084Z,100680.09
2023-05-09T08:03:38.715Z,100670.25
2023-05-09T08:06:40.721Z,100661.91
2023-05-09T08:09:42.761Z,100657.25
2023-05-09T08:12:44.977Z,100651.81
2023-05-09T08:15:46.933Z,100646.97
2023-05-09T08:18:50.414Z,100641.44
2023-05-09T08:21:56.188Z,100635.97
2023-05-09T08:24:57.978Z,100636.00
2023-05-09T08:27:59.793Z,100632.16
2023-05-09T08:31:01.840Z,100620.31
2023-05-09T08:34:04.050Z,100616.56
2023-05-09T08:37:05.992Z,100617.63
2023-05-09T08:40:08.037Z,100607.34
2023-05-09T08:43:11.843Z,100615.09
2023-05-09T08:46:16.044Z,100611.47
2023-05-09T08:49:19.062Z,100609.03
2023-05-09T08:52:21.584Z,100607.88
2023-05-09T08:55:23.670Z,100598.53
2023-05-09T08:58:25.511Z,100597.22
2023-05-09T09:01:28.178Z,100588.38
2023-05-09T09:04:30.281Z,100586.97
2023-05-09T09:07:36.807Z,100580.06
2023-05-09T09:10:43.339Z,100578.00
2023-05-09T09:13:47.046Z,100581.16
2023-05-09T09:16:50.107Z,100572.22
2023-05-09T09:19:55.773Z,100563.81
2023-05-09T09:23:04.828Z,100572.25
2023-05-09T09:26:06.829Z,100563.78
2023-05-09T09:29:08.945Z,100561.88
2023-05-09T09:32:10.872Z,100561.81
2023-05-09T09:35:12.954Z,100559.56
2023-05-09T09:38:14.917Z,100556.00
2023-05-09T09:41:16.964Z,100545.88
2023-05-09T09:44:21.722Z,100544.38
2023-05-09T09:47:33.734Z,100538.31
2023-05-09T09:50:35.657Z,100533.84
2023-05-09T09:53:44.735Z,100525.25
2023-05-09T09:56:50.048Z,100518.66
2023-05-09T10:00:01.497Z,100516.31
2023-05-09T10:03:06.074Z,100513.22
2023-05-09T10:06:16.201Z,100505.59
2023-05-09T10:09:18.669Z,100505.13
2023-05-09T10:12:22.952Z,100500.75
2023-05-09T10:15:26.217Z,100499.41
2023-05-09T10:18:31.078Z,100497.53
2023-05-09T10:21:33.528Z,100486.31
2023-05-09T10:25:00.457Z,100482.84
2023-05-09T10:28:11.815Z,100478.72
2023-05-09T10:31:25.576Z,100475.91
2023-05-09T10:34:33.798Z,100467.44
2023-05-09T10:37:37.004Z,100466.91
2023-05-09T10:40:41.237Z,100464.50
2023-05-09T10:43:44.345Z,100457.66
2023-05-09T10:46:46.947Z,100446.47
2023-05-09T10:49:52.110Z,100443.44
2023-05-09T10:53:24.860Z,100446.28
2023-05-09T10:56:32.480Z,100433.81
2023-05-09T10:59:36.592Z,100427.91
2023-05-09T11:02:39.126Z,100422.63
2023-05-09T11:05:42.251Z,100425.09
2023-05-09T11:08:44.151Z,100414.56
2023-05-09T11:11:53.633Z,100407.66
2023-05-09T11:15:05.920Z,100398.72
2023-05-09T11:18:10.238Z,100399.50
2023-05-09T11:21:12.280Z,100398.16
2023-05-09T11:24:22.833Z,100393.59
2023-05-09T11:27:27.109Z,100385.78
2023-05-09T11:30:44.402Z,100390.34
2023-05-09T11:33:54.966Z,100390.50
2023-05-09T11:37:10.856Z,100389.88
2023-05-09T11:40:14.607Z,100386.59
2023-05-09T11:43:18.559Z,100379.00
2023-05-09T11:46:20.588Z,100365.78
2023-05-09T11:49:22.329Z,100361.00
2023-05-09T11:52:24.416Z,100370.00
2023-05-09T11:55:30.058Z,100374.72
2023-05-09T11:58:32.026Z,100369.16
2023-05-09T12:01:33.911Z,100365.09
2023-05-09T12:04:36.210Z,100360.31
2023-05-09T12:07:39.654Z,100358.00
2023-05-09T12:10:42.010Z,100356.72
2023-05-09T12:13:52.193Z,100356.06
2023-05-09T12:16:53.914Z,100343.63
2023-05-09T12:19:58.514Z,100333.72
2023-05-09T12:23:00.301Z,100337.16
2023-05-09T12:26:02.267Z,100335.38
2023-05-09T12:29:04.483Z,100329.28
2023-05-09T12:32:06.479Z,100315.75
2023-05-09T12:35:10.569Z,100323.09
2023-05-09T12:38:16.039Z,100314.66
2023-05-09T12:41:34.890Z,100310.63
2023-05-09T12:44:40.364Z,100309.41
2023-05-09T12:47:42.361Z,100314.25
2023-05-09T12:50:47.511Z,100301.91
2023-05-09T12:53:49.102Z,100296.34
2023-05-09T12:56:52.814Z,100293.72
2023-05-09T13:00:02.609Z,100292.00
2023-05-09T13:03:04.651Z,100300.66
2023-05-09T13:06:13.202Z,100295.81
2023-05-09T13:09:15.563Z,100283.34
2023-05-09T13:12:20.742Z,100288.22
2023-05-09T13:15:23.476Z,100283.78
2023-05-09T13:18:26.573Z,100270.09
2023-05-09T13:21:31.600Z,100272.50
2023-05-09T13:24:33.371Z,100272.28
2023-05-09T13:27:35.314Z,100254.50
2023-05-09T13:30:37.355Z,100263.56
2023-05-09T13:33:39.289Z,100257.22
2023-05-09T13:36:41.463Z,100256.25
2023-05-09T13:39:43.072Z,100244.06
2023-05-09T13:42:45.051Z,100233.09
2023-05-09T13:45:46.861Z,100227.94
2023-05-09T13:48:51.242Z,100223.91
2023-05-09T13:51:53.125Z,100219.03
2023-05-09T13:54:55.013Z,100213.41
2023-05-09T13:57:59.049Z,100207.00
2023-05-09T14:01:03.338Z,100207.78
2023-05-09T14:04:05.232Z,100201.09
2023-05-09T14:07:07.338Z,100200.69
2023-05-09T14:10:12.376Z,100193.09
2023-05-09T14:13:15.665Z,100191.84
2023-05-09T14:16:17.548Z,100186.00
2023-05-09T14:19:19.998Z,100178.13
2023-05-09T14:22:21.945Z,100182.94
2023-05-09T14:25:23.976Z,100165.91
2023-05-09T14:28:28.381Z,100155.78
2023-05-09T14:31:30.724Z,100148.69
2023-05-09T14:34:32.579Z,100143.06
2023-05-09T14:37:34.291Z,100141.72
2023-05-09T14:40:36.507Z,100140.38
2023-05-09T14:43:38.294Z,100133.59
2023-05-09T14:46:40.345Z,100131.25
2023-05-09T14:49:41.965Z,100132.63
2023-05-09T14:52:45.396Z,100121.94
2023-05-09T14:55:47.392Z,100111.13
2023-05-09T14:58:49.430Z,100111.94
2023-05-09T15:01:52.875Z,100110.16
2023-05-09T15:04:56.309Z,100110.88
2023-05-09T15:07:58.308Z,100100.06
2023-05-09T15:11:01.116Z,100105.50
2023-05-09T15:14:03.423Z,100100.91
2023-05-09T15:17:06.018Z,100091.72
2023-05-09T15:20:08.448Z,100099.09
2023-05-09T15:23:11.812Z,100080.81
2023-05-09T15:26:14.136Z,100086.81
2023-05-09T15:29:16.899Z,100089.16
2023-05-09T15:32:18.497Z,100085.66
2023-05-09T15:35:20.208Z,100088.31
2023-05-09T15:38:21.836Z,100085.25
2023-05-09T15:41:23.688Z,100079.13
2023-05-09T15:44:25.481Z,100075.50
2023-05-09T15:47:27.849Z,100071.69
2023-05-09T15:50:31.276Z,100068.44
2023-05-09T15:53:33.195Z,100069.72
2023-05-09T15:56:34.882Z,100068.75
2023-05-09T15:59:36.787Z,100052.34
2023-05-09T16:02:38.848Z,100052.34
2023-05-09T16:05:41.392Z,100050.63
2023-05-09T16:08:43.842Z,100041.91
2023-05-09T16:11:47.240Z,100043.41
2023-05-09T16:14:49.315Z,100032.25
2023-05-09T16:17:51.187Z,100034.47
2023-05-09T16:20:53.206Z,100041.63
2023-05-09T16:24:03.182Z,100035.97
2023-05-09T16:27:05.234Z,100038.88
2023-05-09T16:30:07.686Z,100018.47
2023-05-09T16:33:09.807Z,100016.16
2023-05-09T16:36:11.763Z,100008.94
2023-05-09T16:39:13.523Z,100009.63
2023-05-09T16:42:15.316Z,99999.38
2023-05-09T16:45:17.280Z,99992.88
2023-05-09T16:48:19.687Z,100002.63
2023-05-09T16:51:21.588Z,100003.44
2023-05-09T16:54:24.034Z,99989.84
2023-05-09T17:00:28.163Z,99985.59
2023-05-09T17:03:30.310Z,99980.78
2023-05-09T17:06:32.906Z,99971.91
2023-05-09T17:09:35.333Z,99976.81
2023-05-09T17:12:39.689Z,99970.56
2023-05-09T17:15:41.814Z,99966.97
2023-05-09T17:18:47.236Z,99968.81
2023-05-09T17:21:50.330Z,99969.03
2023-05-09T17:24:53.106Z,99961.38
2023-05-09T17:27:54.918Z,99957.72
2023-05-09T17:30:58.062Z,99952.25
2023-05-09T17:34:02.086Z,99949.00
2023-05-09T17:37:05.764Z,99951.19
2023-05-09T17:40:09.827Z,99953.38
2023-05-09T17:43:13.366Z,99954.34
2023-05-09T17:46:17.115Z,99952.72
2023-05-09T17:49:19.122Z,99959.72
2023-05-09T17:52:21.622Z,99957.03
2023-05-09T17:55:23.453Z,99953.16
2023-05-09T17:58:27.832Z,99953.03
2023-05-09T18:01:32.318Z,99947.50
2023-05-09T18:04:36.209Z,99941.13
2023-05-09T18:07:40.242Z,99948.28
2023-05-09T18:10:42.042Z,99950.81
2023-05-09T18:13:44.186Z,99955.84
2023-05-09T18:16:46.269Z,99943.22
2023-05-09T18:19:48.262Z,99943.13
2023-05-09T18:22:50.385Z,99940.47
2023-05-09T18:25:54.116Z,99940.97
2023-05-09T18:28:56.189Z,99945.06
2023-05-09T18:31:58.153Z,99948.94
2023-05-09T18:35:01.354Z,99948.13
2023-05-09T18:38:03.497Z,99939.22
2023-05-09T18:41:10.306Z,99935.03
2023-05-09T18:44:12.164Z,99937.84
2023-05-09T18:47:14.062Z,99934.84
2023-05-09T18:50:16.570Z,99939.25
2023-05-09T18:53:19.606Z,99935.59
2023-05-09T18:56:22.306Z,99936.50
2023-05-09T18:59:24.534Z,99924.16
2023-05-09T19:02:32.329Z,99928.00
2023-05-09T19:05:35.848Z,99928.50
2023-05-09T19:08:37.536Z,99933.00
2023-05-09T19:11:39.572Z,99929.25
2023-05-09T19:14:43.455Z,99930.31
2023-05-09T19:17:45.251Z,99932.97
2023-05-09T19:20:48.212Z,99930.06
2023-05-09T19:23:50.485Z,99935.81
2023-05-09T19:26:52.676Z,99940.72
2023-05-09T19:29:54.574Z,99929.84
2023-05-09T19:32:56.516Z,99937.19
2023-05-09T19:35:58.323Z,99938.53
2023-05-09T19:39:00.772Z,99939.50
2023-05-09T19:42:03.879Z,99942.81
2023-05-09T19:45:06.954Z,99942.50
2023-05-09T19:48:15.713Z,99943.78
2023-05-09T19:51:18.912Z,99938.75
2023-05-09T19:54:23.520Z,99940.91
2023-05-09T19:57:25.744Z,99936.00
2023-05-09T20:00:28.873Z,99940.91
2023-05-09T20:03:30.973Z,99934.41
2023-05-09T20:06:32.648Z,99924.97
2023-05-09T20:09:34.534Z,99929.84
2023-05-09T20:12:36.298Z,99918.63
2023-05-09T20:15:38.085Z,99918.97
2023-05-09T20:18:39.869Z,99912.59
2023-05-09T20:21:41.610Z,99914.75
2023-05-09T20:24:44.788Z,99905.59
2023-05-09T20:27:46.758Z,99906.75
2023-05-09T20:30:49.188Z,99904.97
2023-05-09T20:33:51.461Z,99899.78
2023-05-09T20:36:55.049Z,99896.19
2023-05-09T20:39:58.387Z,99895.84
2023-05-09T20:43:01.862Z,99888.88
2023-05-09T20:46:03.774Z,99887.91
2023-05-09T20:49:08.073Z,99886.59
2023-05-09T20:52:10.056Z,99883.19
2023-05-09T20:55:12.406Z,99872.59
2023-05-09T20:58:14.877Z,99871.47
2023-05-09T21:01:16.425Z,99877.16
2023-05-09T21:04:18.148Z,99880.44
2023-05-09T21:07:20.175Z,99873.25
2023-05-09T21:10:22.251Z,99869.50
2023-05-09T21:13:23.910Z,99861.34
2023-05-09T21:16:25.554Z,99858.09
2023-05-09T21:19:28.191Z,99857.91
2023-05-09T21:22:29.857Z,99854.66
2023-05-09T21:25:31.670Z,99839.56
2023-05-09T21:28:33.526Z,99842.44
2023-05-09T21:31:35.697Z,99834.81
2023-05-09T21:34:37.462Z,99832.69
2023-05-09T21:37:39.817Z,99830.72
2023-05-09T21:40:41.305Z,99817.56
2023-05-09T21:43:43.048Z,99816.44
2023-05-09T21:46:46.552Z,99818.22
2023-05-09T21:49:48.298Z,99819.84
2023-05-09T21:52:49.926Z,99817.72
2023-05-09T21:55:51.781Z,99819.66
2023-05-09T21:58:53.427Z,99811.84
2023-05-09T22:01:55.180Z,99805.38
2023-05-09T22:04:57.089Z,99808.59
2023-05-09T22:07:58.955Z,99797.84
2023-05-09T22:11:01.020Z,99798.00
2023-05-09T22:14:03.615Z,99793.13
2023-05-09T22:17:07.326Z,99794.91
2023-05-09T22:20:09.544Z,99794.91
2023-05-09T22:23:11.517Z,99798.50
2023-05-09T22:26:13.192Z,99790.53
2023-05-09T22:29:16.577Z,99797.84
2023-05-09T22:32:18.248Z,99797.84
2023-05-09T22:35:19.963Z,99804.66
2023-05-09T22:38:21.724Z,99816.19
2023-05-09T22:41:23.361Z,99816.19
2023-05-09T22:44:25.262Z,99817.47
2023-05-09T22:47:27.150Z,99811.78
2023-05-09T22:50:28.927Z,99811.13
2023-05-09T22:53:31.204Z,99812.72
2023-05-09T22:56:33.640Z,99818.72
2023-05-09T22:59:37.221Z,99823.25
2023-05-09T23:02:40.137Z,99826.19
2023-05-09T23:05:42.908Z,99827.44
2023-05-09T23:08:45.334Z,99828.75
2023-05-09T23:11:47.455Z,99832.91
2023-05-09T23:14:49.136Z,99820.25
2023-05-09T23:17:51.062Z,99820.69
2023-05-09T23:20:52.960Z,99817.63
2023-05-09T23:23:54.768Z,99816.78
2023-05-09T23:26:56.874Z,99815.03
2023-05-09T23:29:58.755Z,99805.28
2023-05-09T23:33:00.757Z,99798.94
2023-05-09T23:36:03.726Z,99787.09
2023-05-09T23:39:05.562Z,99796.66
2023-05-09T23:42:08.537Z,99784.81
2023-05-09T23:45:10.486Z,99783.19
2023-05-09T23:48:13.168Z,99786.41
2023-05-09T23:51:14.828Z,99778.91
2023-05-09T23:54:16.785Z,99777.31
2023-05-09T23:57:18.608Z,99774.03
